Time;durP1;ratioP1;P1;durP2;ratioP2;P2;SDS_P1;SDS_P2;PMS_P1;PMS_P2;Temp;Humidity;BMP_temperature;BMP_pressure;BME280_temperature;BME280_humidity;BME280_pressure;Samples;Min_cycle;Max_cycle;Signal;HPM_P1;HPM_P2
2022/11/22 00:00:08;;;;;;;14.18;7.35;;;;;;;6.65;100.00;99021.88;5094887;28;20032;-59
2022/11/22 00:02:34;;;;;;;13.55;7.50;;;;;;;6.64;100.00;99024.63;5091730;28;20049;-59
2022/11/22 00:05:02;;;;;;;10.45;7.15;;;;;;;6.59;100.00;99009.16;5091538;28;20099;-59
2022/11/22 00:07:27;;;;;;;15.02;7.72;;;;;;;6.68;100.00;99021.66;5092612;28;20020;-59
2022/11/22 00:09:52;;;;;;;13.18;7.85;;;;;;;6.72;100.00;99015.16;5105479;28;20035;-59
2022/11/22 00:12:18;;;;;;;14.98;7.22;;;;;;;6.70;100.00;99010.94;5111490;28;20020;-59
2022/11/22 00:14:44;;;;;;;16.65;7.72;;;;;;;6.70;100.00;99001.22;5091485;28;20036;-59
2022/11/22 00:17:09;;;;;;;14.57;7.32;;;;;;;6.71;100.00;99015.31;5092669;28;20421;-59
2022/11/22 00:19:38;;;;;;;14.55;6.88;;;;;;;6.71;100.00;99017.94;5091439;28;20513;-59
2022/11/22 00:22:04;;;;;;;13.55;6.85;;;;;;;6.67;100.00;99017.31;5090385;28;20364;-59
2022/11/22 00:24:29;;;;;;;13.63;6.82;;;;;;;6.70;100.00;99003.88;5091682;28;20024;-59
2022/11/22 00:26:55;;;;;;;9.20;6.82;;;;;;;6.65;100.00;99016.59;5090949;28;20034;-59
2022/11/22 00:29:21;;;;;;;13.32;7.32;;;;;;;6.60;100.00;99016.09;5101998;28;20220;-59
2022/11/22 00:31:47;;;;;;;11.05;7.47;;;;;;;6.59;100.00;99019.72;5111558;28;20042;-59
2022/11/22 00:34:12;;;;;;;9.23;7.13;;;;;;;6.54;100.00;99016.56;5107164;27;20082;-59
2022/11/22 00:36:37;;;;;;;14.10;7.00;;;;;;;6.53;100.00;99021.03;5081898;28;20035;-59
2022/11/22 00:39:03;;;;;;;9.77;6.57;;;;;;;6.53;100.00;99028.09;5091566;28;20024;-59
2022/11/22 00:41:28;;;;;;;13.90;7.22;;;;;;;6.46;100.00;99022.44;5090740;28;20089;-59
2022/11/22 00:43:53;;;;;;;15.02;7.35;;;;;;;6.47;100.00;99023.25;5072140;28;20024;-59
2022/11/22 00:46:19;;;;;;;16.17;7.07;;;;;;;6.45;100.00;99015.47;5091789;28;20028;-59
2022/11/22 00:48:44;;;;;;;13.77;6.88;;;;;;;6.40;100.00;99022.06;5091096;28;20052;-59
2022/11/22 00:51:11;;;;;;;12.48;7.03;;;;;;;6.37;100.00;99017.84;5088425;28;20032;-59
2022/11/22 00:53:36;;;;;;;16.38;6.80;;;;;;;6.27;100.00;99006.31;5103482;28;20024;-59
2022/11/22 00:56:02;;;;;;;13.77;7.45;;;;;;;6.22;100.00;99011.91;5105303;28;20398;-59
2022/11/22 00:58:28;;;;;;;12.43;6.68;;;;;;;6.24;100.00;99014.47;5094779;28;20394;-59
2022/11/22 01:00:54;;;;;;;13.35;6.65;;;;;;;6.24;100.00;99012.66;5083260;28;20032;-59
2022/11/22 01:03:23;;;;;;;16.48;6.70;;;;;;;6.19;100.00;99008.66;5078818;28;20558;-59
2022/11/22 01:05:48;;;;;;;13.38;5.85;;;;;;;6.19;100.00;98998.13;5097853;28;20032;-59
2022/11/22 01:08:16;;;;;;;11.75;6.60;;;;;;;6.17;100.00;99006.13;5096596;28;20433;-59
2022/11/22 01:10:44;;;;;;;14.57;6.55;;;;;;;6.10;100.00;99020.75;5093105;28;20020;-59
2022/11/22 01:13:11;;;;;;;12.98;6.30;;;;;;;6.09;100.00;99012.00;5095987;28;20051;-59
2022/11/22 01:15:36;;;;;;;14.55;6.78;;;;;;;6.09;100.00;99025.19;5094706;28;20394;-59
2022/11/22 01:18:02;;;;;;;17.45;6.75;;;;;;;6.04;100.00;99016.78;5094594;28;20044;-59
2022/11/22 01:20:29;;;;;;;16.70;5.72;;;;;;;6.00;100.00;99017.09;5093559;28;20446;-59
2022/11/22 01:22:55;;;;;;;12.80;6.20;;;;;;;6.04;100.00;99031.75;5096489;28;20024;-59
2022/11/22 01:25:20;;;;;;;13.95;6.30;;;;;;;5.95;100.00;99014.81;5093745;28;20103;-59
2022/11/22 01:27:46;;;;;;;15.05;6.38;;;;;;;5.96;100.00;99018.28;5095529;28;20105;-59
2022/11/22 01:30:12;;;;;;;14.70;6.43;;;;;;;5.90;100.00;99014.28;5076325;28;20111;-59
2022/11/22 01:32:37;;;;;;;19.52;6.68;;;;;;;5.97;100.00;99025.25;5085811;28;20046;-59
2022/11/22 01:35:03;;;;;;;18.40;7.00;;;;;;;5.90;100.00;99016.91;5097258;28;20051;-59
2022/11/22 01:37:28;;;;;;;15.10;6.10;;;;;;;5.90;100.00;99025.66;5094089;28;20114;-59
2022/11/22 01:39:56;;;;;;;19.85;7.30;;;;;;;5.92;100.00;99025.56;5093058;28;20024;-59
2022/11/22 01:42:21;;;;;;;15.60;6.18;;;;;;;5.91;100.00;99031.78;5100411;28;20024;-59
2022/11/22 01:44:47;;;;;;;11.18;5.95;;;;;;;5.88;100.00;99038.13;5096341;28;20447;-59
2022/11/22 01:47:24;;;;;;;15.98;5.78;;;;;;;5.88;100.00;99055.75;5112853;28;20490;-59
2022/11/22 01:50:01;;;;;;;16.27;6.70;;;;;;;5.89;100.00;99042.44;5112832;28;20024;-59
2022/11/22 01:52:31;;;;;;;17.10;6.45;;;;;;;5.87;100.00;99044.34;5114124;28;20031;-59
2022/11/22 01:55:06;;;;;;;17.73;6.77;;;;;;;5.88;100.00;99047.81;5112487;28;20024;-59
2022/11/22 01:57:37;;;;;;;21.67;7.40;;;;;;;5.81;100.00;99051.88;5109359;28;20624;-59
2022/11/22 02:00:15;;;;;;;21.80;6.00;;;;;;;5.83;100.00;99050.81;5093843;28;20498;-59
2022/11/22 02:02:44;;;;;;;16.15;5.75;;;;;;;5.85;100.00;99054.19;5093704;28;20021;-59
2022/11/22 02:05:16;;;;;;;24.95;6.20;;;;;;;5.81;100.00;99042.16;5102479;28;20035;-59
2022/11/22 02:07:49;;;;;;;21.70;6.85;;;;;;;5.81;100.00;99057.16;5114231;28;20031;-59
2022/11/22 02:10:17;;;;;;;15.85;6.15;;;;;;;5.81;100.00;99054.50;5114085;28;20028;-59
2022/11/22 02:12:44;;;;;;;17.08;5.97;;;;;;;5.80;100.00;99048.41;5146635;27;20027;-59
2022/11/22 02:15:11;;;;;;;24.73;6.22;;;;;;;5.75;100.00;99050.53;5105830;28;20373;-59
2022/11/22 02:17:38;;;;;;;19.20;6.13;;;;;;;5.82;100.00;99064.09;5093777;28;20183;-59
2022/11/22 02:20:05;;;;;;;26.52;6.43;;;;;;;5.79;100.00;99053.78;5093746;28;20040;-59
2022/11/22 02:22:51;;;;;;;21.50;6.45;;;;;;;5.82;100.00;99058.81;5093176;28;20109;-59
2022/11/22 02:25:37;;;;;;;23.17;6.10;;;;;;;5.81;100.00;99049.25;5092930;28;20031;-59
2022/11/22 02:28:03;;;;;;;21.48;6.20;;;;;;;5.73;100.00;99055.06;5101704;28;20028;-59
2022/11/22 02:30:29;;;;;;;23.50;6.85;;;;;;;5.77;100.00;99063.63;5092986;28;20107;-59
2022/11/22 02:32:56;;;;;;;19.92;6.55;;;;;;;5.70;100.00;99058.75;5093632;28;20028;-59
2022/11/22 02:35:25;;;;;;;20.58;5.75;;;;;;;5.75;100.00;99076.06;5103196;28;20039;-59
2022/11/22 02:37:56;;;;;;;15.32;5.90;;;;;;;5.72;100.00;99060.44;5113137;28;20051;-59
2022/11/22 02:40:25;;;;;;;21.75;6.63;;;;;;;5.70;100.00;99068.47;5113546;28;20027;-59
2022/11/22 02:43:22;;;;;;;27.08;7.28;;;;;;;5.80;100.00;99066.88;5113062;27;20019;-59
2022/11/22 02:45:48;;;;;;;21.23;5.97;;;;;;;5.68;100.00;99068.59;5110911;28;20419;-59
2022/11/22 02:48:16;;;;;;;20.88;6.10;;;;;;;5.66;100.00;99059.09;5111420;28;20172;-59
2022/11/22 02:50:44;;;;;;;20.98;6.65;;;;;;;5.66;100.00;99077.56;5092748;28;20068;-59
2022/11/22 02:53:11;;;;;;;17.40;6.22;;;;;;;5.57;100.00;99065.88;5091396;28;20031;-59
2022/11/22 02:55:37;;;;;;;19.08;6.22;;;;;;;5.60;100.00;99072.72;5107826;28;20024;-59
2022/11/22 02:58:04;;;;;;;19.23;6.53;;;;;;;5.55;100.00;99082.75;5113091;28;20472;-59
2022/11/22 03:00:33;;;;;;;15.90;5.60;;;;;;;5.55;100.00;99080.94;5112900;27;20076;-59
2022/11/22 03:03:01;;;;;;;22.20;6.80;;;;;;;5.52;100.00;99064.50;5113230;28;20088;-59
2022/11/22 03:05:26;;;;;;;19.65;6.45;;;;;;;5.49;100.00;99070.00;5106337;28;20081;-59
2022/11/22 03:07:52;;;;;;;20.05;7.28;;;;;;;5.50;100.00;99077.81;5092097;28;20031;-59
2022/11/22 03:10:17;;;;;;;19.00;6.88;;;;;;;5.49;99.55;99073.47;5092330;28;20067;-59
2022/11/22 03:12:43;;;;;;;23.40;6.95;;;;;;;5.38;100.00;99074.25;5090920;28;20067;-59
2022/11/22 03:15:09;;;;;;;24.77;6.75;;;;;;;5.43;100.00;99093.19;5093649;28;20495;-59
2022/11/22 03:17:34;;;;;;;20.02;6.05;;;;;;;5.42;99.90;99095.97;5092633;28;20024;-59
2022/11/22 03:20:00;;;;;;;16.63;6.75;;;;;;;5.41;99.62;99095.13;5092178;28;20052;-59
2022/11/22 03:22:26;;;;;;;21.40;6.15;;;;;;;5.44;99.69;99101.94;5092331;28;20426;-59
2022/11/22 03:24:51;;;;;;;23.25;6.40;;;;;;;5.40;99.32;99095.22;5093573;28;20028;-59
2022/11/22 03:27:16;;;;;;;23.60;5.85;;;;;;;5.34;99.28;99099.13;5102325;28;20445;-59
2022/11/22 03:29:42;;;;;;;22.58;6.60;;;;;;;5.30;99.55;99102.09;5092370;28;20028;-59
2022/11/22 03:32:10;;;;;;;21.00;6.28;;;;;;;5.27;99.40;99097.88;5091207;28;20115;-59
2022/11/22 03:34:35;;;;;;;20.95;5.60;;;;;;;5.24;98.65;99101.56;5076253;28;20394;-59
2022/11/22 03:37:00;;;;;;;19.45;6.25;;;;;;;5.19;99.24;99106.31;5069992;28;20120;-59
2022/11/22 03:39:26;;;;;;;22.42;6.78;;;;;;;5.18;99.07;99102.00;5086813;28;20034;-59
2022/11/22 03:41:55;;;;;;;19.88;5.63;;;;;;;5.12;99.76;99098.94;5090855;28;20028;-59
2022/11/22 03:44:21;;;;;;;26.52;6.32;;;;;;;5.11;99.02;99099.88;5090599;28;20063;-59
2022/11/22 03:46:46;;;;;;;19.63;5.70;;;;;;;5.10;99.26;99106.09;5101724;28;20035;-59
2022/11/22 03:49:11;;;;;;;22.17;7.28;;;;;;;5.00;99.03;99112.00;5100947;28;20027;-59
2022/11/22 03:51:37;;;;;;;21.48;6.53;;;;;;;5.03;99.60;99103.03;5097404;28;20036;-59
2022/11/22 03:54:03;;;;;;;19.33;6.60;;;;;;;4.99;99.39;99107.66;5112378;28;20050;-59
2022/11/22 03:56:28;;;;;;;18.35;6.32;;;;;;;4.98;98.88;99110.41;5074017;28;20049;-59
2022/11/22 03:58:54;;;;;;;18.90;6.60;;;;;;;4.95;98.37;99105.34;5072386;28;20036;-59
2022/11/22 04:01:21;;;;;;;20.35;6.60;;;;;;;4.96;98.81;99109.66;5088328;28;20035;-59
2022/11/22 04:03:46;;;;;;;25.63;7.32;;;;;;;4.93;98.66;99109.88;5071422;28;20035;-59
2022/11/22 04:06:12;;;;;;;19.80;6.53;;;;;;;4.90;98.49;99108.28;5069584;28;20537;-59
2022/11/22 04:08:37;;;;;;;21.73;6.63;;;;;;;4.88;98.94;99111.97;5075443;28;20496;-59
2022/11/22 04:11:03;;;;;;;20.88;6.75;;;;;;;4.83;99.19;99099.13;5095245;28;20475;-59
2022/11/22 04:16:13;;;;;;;22.27;7.00;;;;;;;4.86;99.28;99120.00;5090938;28;20047;-59
2022/11/22 04:18:39;;;;;;;18.00;6.32;;;;;;;4.82;98.62;99129.03;5090773;28;20068;-59
2022/11/22 04:26:36;;;;;;;17.52;6.82;;;;;;;4.70;98.24;99138.59;5092786;28;20374;-59
2022/11/22 04:29:01;;;;;;;19.77;6.38;;;;;;;4.57;98.17;99131.63;5099211;28;20040;-59
2022/11/22 04:34:11;;;;;;;19.20;6.80;;;;;;;4.51;98.64;99115.28;5083797;28;20055;-59
2022/11/22 04:36:41;;;;;;;17.33;6.60;;;;;;;4.57;98.46;99129.84;5095071;28;20434;-59
2022/11/22 04:39:06;;;;;;;;;;;;;;;4.64;98.80;99132.91;5099787;28;20107;-59
2022/11/22 04:41:32;;;;;;;19.02;6.30;;;;;;;4.59;98.63;99135.84;5093718;28;20449;-59
2022/11/22 04:46:41;;;;;;;20.40;6.38;;;;;;;4.49;98.82;99140.84;5144130;27;20043;-59
2022/11/22 04:49:10;;;;;;;20.65;6.68;;;;;;;4.50;98.05;99136.44;5098344;28;20467;-59
2022/11/22 04:54:22;;;;;;;20.40;6.30;;;;;;;4.44;98.74;99140.34;5096586;28;20099;-59
2022/11/22 04:56:48;;;;;;;23.25;7.40;;;;;;;4.38;98.53;99129.34;5096413;28;20059;-59
2022/11/22 04:59:13;;;;;;;27.40;7.43;;;;;;;4.41;98.59;99139.66;5094845;28;20042;-59
2022/11/22 05:01:39;;;;;;;14.55;6.03;;;;;;;4.41;98.39;99151.06;5096680;28;20027;-59
2022/11/22 05:04:07;;;;;;;16.27;6.50;;;;;;;4.36;98.47;99139.16;5083692;28;20371;-59
2022/11/22 05:06:32;;;;;;;15.55;6.47;;;;;;;4.35;98.53;99145.34;5106161;28;20493;-59
2022/11/22 05:08:57;;;;;;;16.27;6.22;;;;;;;4.31;98.24;99150.78;5095126;28;20028;-59
2022/11/22 05:11:25;;;;;;;18.35;6.90;;;;;;;4.37;98.13;99152.19;5092810;28;20032;-59
2022/11/22 05:13:51;;;;;;;16.92;6.30;;;;;;;4.29;98.38;99155.34;5093610;28;20028;-59
2022/11/22 05:16:16;;;;;;;18.88;6.53;;;;;;;4.26;98.10;99147.59;5114794;28;20034;-59
2022/11/22 05:18:57;;;;;;;17.17;6.00;;;;;;;4.23;98.23;99144.34;5095511;28;20048;-59
2022/11/22 05:21:24;;;;;;;14.65;6.25;;;;;;;4.28;98.65;99156.25;5095144;28;20608;-59
2022/11/22 05:23:55;;;;;;;19.70;6.15;;;;;;;4.28;97.89;99145.72;5100846;28;20374;-59
2022/11/22 05:26:31;;;;;;;12.85;5.82;;;;;;;4.26;97.76;99146.75;5099987;28;20123;-59
2022/11/22 05:29:01;;;;;;;18.48;6.28;;;;;;;4.25;98.10;99147.72;5094574;28;20024;-59
2022/11/22 05:31:27;;;;;;;19.70;6.35;;;;;;;4.23;97.65;99145.19;5093778;28;20031;-59
2022/11/22 05:33:55;;;;;;;15.02;5.75;;;;;;;4.18;98.23;99147.28;5095181;28;20032;-59
2022/11/22 05:36:22;;;;;;;15.20;5.72;;;;;;;4.23;97.92;99139.06;5094231;28;20169;-59
2022/11/22 05:38:48;;;;;;;16.88;5.45;;;;;;;4.24;98.04;99135.53;5100489;28;20030;-59
2022/11/22 05:41:15;;;;;;;18.60;5.93;;;;;;;4.16;98.20;99141.25;5114176;28;20024;-59
2022/11/22 05:43:41;;;;;;;22.75;6.15;;;;;;;4.14;98.67;99129.16;5106171;28;20020;-59
2022/11/22 05:46:13;;;;;;;20.88;6.60;;;;;;;4.18;98.21;99149.06;5093009;28;20043;-59
2022/11/22 05:48:40;;;;;;;15.93;6.38;;;;;;;4.15;98.14;99150.09;5092948;28;20077;-59
2022/11/22 05:51:11;;;;;;;14.45;5.97;;;;;;;4.11;97.69;99159.13;5092973;28;20497;-59
2022/11/22 05:53:38;;;;;;;13.52;5.78;;;;;;;4.12;97.75;99145.03;5095530;28;20028;-59
2022/11/22 05:56:08;;;;;;;14.52;6.40;;;;;;;4.08;98.28;99133.00;5102149;28;20429;-59
2022/11/22 05:58:35;;;;;;;17.60;6.28;;;;;;;4.08;97.83;99130.38;5114722;28;20382;-59
2022/11/22 06:01:08;;;;;;;19.70;6.63;;;;;;;4.09;98.07;99139.97;5093936;28;20035;-59
2022/11/22 06:03:35;;;;;;;19.58;6.40;;;;;;;4.05;98.01;99136.69;5093883;28;20020;-59
2022/11/22 06:06:00;;;;;;;17.73;5.82;;;;;;;4.05;97.61;99133.22;5094807;28;20481;-59
2022/11/22 06:08:31;;;;;;;13.27;5.40;;;;;;;3.99;97.60;99134.44;5084560;28;20113;-59
2022/11/22 06:11:06;;;;;;;15.90;6.05;;;;;;;4.01;98.24;99137.00;5088879;28;20031;-59
2022/11/22 06:13:34;;;;;;;18.30;6.47;;;;;;;4.01;98.07;99143.09;5095125;28;20497;-59
2022/11/22 06:16:00;;;;;;;12.88;5.80;;;;;;;3.98;97.14;99150.34;5093015;28;20032;-59
2022/11/22 06:18:26;;;;;;;17.20;6.00;;;;;;;3.94;98.01;99146.19;5093233;28;20055;-59
2022/11/22 06:20:58;;;;;;;15.05;6.10;;;;;;;3.92;98.15;99138.41;5092240;28;20020;-59
2022/11/22 06:23:24;;;;;;;14.95;5.97;;;;;;;3.91;98.28;99141.97;5092183;28;20028;-59
2022/11/22 06:25:57;;;;;;;17.35;6.32;;;;;;;3.85;98.04;99140.59;5105022;28;20527;-59
2022/11/22 06:28:22;;;;;;;19.80;6.70;;;;;;;3.94;98.34;99157.59;5093223;28;20089;-58
2022/11/22 06:30:47;;;;;;;19.92;6.28;;;;;;;3.91;98.62;99167.44;5095187;28;20036;-59
2022/11/22 06:33:13;;;;;;;20.23;6.93;;;;;;;3.94;97.82;99154.94;5092097;28;20123;-59
2022/11/22 06:35:39;;;;;;;17.67;6.15;;;;;;;3.93;97.41;99165.56;5096352;28;20030;-59
2022/11/22 06:38:04;;;;;;;17.33;6.60;;;;;;;3.92;98.25;99158.63;5071693;28;20399;-59
2022/11/22 06:40:30;;;;;;;15.95;6.35;;;;;;;3.94;98.57;99167.22;5079096;28;20035;-59
2022/11/22 06:42:55;;;;;;;14.90;5.85;;;;;;;3.91;98.03;99170.06;5092203;28;20020;-59
2022/11/22 06:45:21;;;;;;;17.08;5.90;;;;;;;3.90;97.45;99168.38;5110176;28;20041;-59
2022/11/22 06:47:49;;;;;;;15.43;5.75;;;;;;;3.91;97.79;99168.25;5098621;28;20437;-59
2022/11/22 06:50:15;;;;;;;14.98;5.82;;;;;;;3.90;97.70;99169.22;5091775;28;20395;-59
2022/11/22 06:52:40;;;;;;;11.95;5.13;;;;;;;3.93;97.48;99169.03;5092566;28;20132;-61
2022/11/22 06:55:08;;;;;;;15.32;6.65;;;;;;;3.89;97.72;99161.44;5093236;28;20115;-61
2022/11/22 06:57:34;;;;;;;19.70;6.47;;;;;;;3.94;97.96;99186.50;5088042;28;20062;-61
2022/11/22 06:59:59;;;;;;;15.75;6.57;;;;;;;3.97;98.52;99177.56;5117369;27;20110;-59
2022/11/22 07:02:24;;;;;;;15.55;6.10;;;;;;;3.99;97.60;99186.22;5095749;28;20127;-59
2022/11/22 07:04:50;;;;;;;19.42;6.43;;;;;;;4.04;98.05;99192.03;5094181;28;20039;-59
2022/11/22 07:07:15;;;;;;;16.10;6.07;;;;;;;4.04;97.04;99195.50;5091183;28;20060;-59
2022/11/22 07:09:41;;;;;;;13.52;5.85;;;;;;;4.03;97.62;99199.09;5095295;28;20458;-59
2022/11/22 07:12:07;;;;;;;16.02;6.07;;;;;;;4.08;97.41;99201.41;5093227;28;20060;-59
2022/11/22 07:14:32;;;;;;;21.25;6.18;;;;;;;4.08;97.40;99194.34;5086356;28;20031;-59
2022/11/22 07:16:58;;;;;;;17.98;6.25;;;;;;;4.12;98.26;99196.78;5092192;28;20119;-59
2022/11/22 07:19:23;;;;;;;19.05;6.13;;;;;;;4.18;97.64;99196.44;5092104;28;20052;-59
2022/11/22 07:21:49;;;;;;;17.85;6.07;;;;;;;4.17;97.54;99192.94;5091145;28;20039;-59
2022/11/22 07:24:15;;;;;;;15.07;5.85;;;;;;;4.21;97.75;99183.91;5092110;28;20023;-59
2022/11/22 07:26:40;;;;;;;15.07;5.63;;;;;;;4.28;97.18;99187.84;5092862;28;20040;-59
2022/11/22 07:29:06;;;;;;;16.17;6.22;;;;;;;4.29;97.59;99196.56;5092105;28;20048;-59
2022/11/22 07:31:31;;;;;;;16.00;5.90;;;;;;;4.31;97.08;99199.97;5091948;28;20521;-59
2022/11/22 07:33:57;;;;;;;14.77;6.45;;;;;;;4.35;97.35;99198.81;5097756;28;20043;-59
2022/11/22 07:36:23;;;;;;;12.48;5.85;;;;;;;4.29;97.34;99188.66;5092401;28;20024;-59
2022/11/22 07:38:52;;;;;;;18.13;5.65;;;;;;;4.39;96.08;99204.75;5073857;28;20552;-59
2022/11/22 07:41:18;;;;;;;15.18;5.72;;;;;;;4.40;96.21;99207.25;5094039;28;20028;-59
2022/11/22 07:43:45;;;;;;;15.18;6.28;;;;;;;4.41;96.18;99195.81;5091811;28;20051;-59
2022/11/22 07:46:31;;;;;;;12.65;6.20;;;;;;;4.43;96.49;99199.16;5090764;28;20038;-59
2022/11/22 07:49:00;;;;;;;15.35;5.88;;;;;;;4.47;96.20;99202.44;5113219;27;20472;-60
2022/11/22 07:51:26;;;;;;;14.00;6.05;;;;;;;4.47;96.67;99195.41;5080036;28;20479;-60
2022/11/22 07:53:52;;;;;;;15.38;6.18;;;;;;;4.52;96.76;99195.09;5091997;28;20028;-60
2022/11/22 07:56:18;;;;;;;17.90;6.15;;;;;;;4.54;95.59;99198.47;5091197;28;20030;-60
2022/11/22 07:58:43;;;;;;;13.00;6.07;;;;;;;4.55;96.02;99197.53;5070989;28;20036;-60
2022/11/22 08:01:11;;;;;;;10.43;5.78;;;;;;;4.59;96.15;99204.31;5088805;28;20255;-60
2022/11/22 08:03:37;;;;;;;21.08;6.05;;;;;;;4.66;96.18;99204.75;5090549;28;20024;-60
2022/11/22 08:06:05;;;;;;;17.08;5.70;;;;;;;4.70;95.28;99201.78;5077017;28;20032;-60
2022/11/22 08:08:31;;;;;;;22.02;6.13;;;;;;;4.70;94.59;99208.84;5086630;28;20039;-60
2022/11/22 08:10:57;;;;;;;11.57;6.38;;;;;;;4.70;94.50;99206.22;5089726;28;20028;-60
2022/11/22 08:13:22;;;;;;;11.82;6.43;;;;;;;4.62;95.30;99193.56;5073257;28;20032;-60
2022/11/22 08:15:48;;;;;;;10.73;5.22;;;;;;;4.73;94.22;99203.38;5091242;28;20120;-60
2022/11/22 08:18:14;;;;;;;14.38;5.55;;;;;;;4.72;95.11;99204.34;5093301;28;20398;-60
2022/11/22 08:20:40;;;;;;;12.43;5.80;;;;;;;4.74;94.69;99208.56;5099621;28;20479;-60
2022/11/22 08:23:06;;;;;;;18.20;6.45;;;;;;;4.78;94.73;99207.41;5090178;28;20078;-60
2022/11/22 08:25:31;;;;;;;11.70;6.00;;;;;;;4.81;95.43;99206.38;5090807;28;20115;-60
2022/11/22 08:27:56;;;;;;;13.80;5.95;;;;;;;4.81;94.12;99205.53;5090972;28;20507;-60
2022/11/22 08:30:22;;;;;;;13.80;5.80;;;;;;;4.82;94.80;99208.03;5090672;28;20040;-60
2022/11/22 08:32:47;;;;;;;12.93;5.78;;;;;;;4.86;94.59;99213.97;5090774;28;20028;-60
2022/11/22 08:35:15;;;;;;;11.52;5.15;;;;;;;4.86;94.44;99211.34;5124301;28;20066;-60
2022/11/22 08:37:43;;;;;;;14.32;5.68;;;;;;;4.91;94.24;99211.84;5089906;28;20106;-60
2022/11/22 08:40:09;;;;;;;14.40;5.68;;;;;;;4.93;94.08;99220.50;5094285;28;20490;-60
2022/11/22 08:42:34;;;;;;;18.90;8.88;;;;;;;4.93;94.28;99221.34;5089906;28;20150;-60
2022/11/22 08:44:59;;;;;;;14.55;7.68;;;;;;;4.90;94.67;99208.38;5073163;28;20047;-60
2022/11/22 08:47:25;;;;;;;17.80;8.80;;;;;;;5.03;94.73;99224.25;5091346;28;20138;-60
2022/11/22 08:49:50;;;;;;;19.70;7.75;;;;;;;5.09;93.73;99228.22;5092233;28;20032;-60
2022/11/22 08:52:16;;;;;;;15.98;7.38;;;;;;;5.10;94.29;99214.97;5089759;28;20028;-60
2022/11/22 08:54:41;;;;;;;13.40;7.32;;;;;;;5.16;94.10;99222.47;5090816;28;20028;-60
2022/11/22 08:57:06;;;;;;;11.68;6.43;;;;;;;5.21;94.19;99227.44;5089687;28;20028;-60
2022/11/22 08:59:32;;;;;;;13.93;5.72;;;;;;;5.18;93.01;99217.09;5091321;28;20495;-60
2022/11/22 09:01:58;;;;;;;11.45;5.30;;;;;;;5.14;93.23;99221.72;5090955;28;20039;-60
2022/11/22 09:04:23;;;;;;;16.38;5.60;;;;;;;5.12;93.53;99214.88;5089767;28;20107;-60
2022/11/22 09:06:49;;;;;;;11.85;5.00;;;;;;;5.15;93.50;99212.03;5101452;28;20043;-60
2022/11/22 09:09:14;;;;;;;14.48;5.93;;;;;;;5.18;93.66;99231.13;5115237;28;20036;-60
2022/11/22 09:11:40;;;;;;;13.18;5.95;;;;;;;5.17;93.76;99225.94;5096168;28;20454;-60
2022/11/22 09:14:06;;;;;;;10.57;4.80;;;;;;;5.19;94.42;99227.53;5094994;28;20051;-60
2022/11/22 09:16:31;;;;;;;12.25;5.40;;;;;;;5.14;93.86;99221.72;5093072;28;20032;-60
2022/11/22 09:18:57;;;;;;;11.85;6.07;;;;;;;5.24;93.78;99233.34;5092998;28;20131;-59
2022/11/22 09:21:22;;;;;;;13.50;5.80;;;;;;;5.27;94.09;99224.38;5094991;28;20050;-60
2022/11/22 09:23:49;;;;;;;10.10;4.60;;;;;;;5.32;93.75;99229.34;5094360;28;20044;-60
2022/11/22 09:26:23;;;;;;;12.15;5.78;;;;;;;5.30;93.78;99215.44;5093895;28;20043;-60
2022/11/22 09:28:49;;;;;;;9.63;4.70;;;;;;;5.38;94.30;99228.91;5093405;28;20363;-60
2022/11/22 09:31:17;;;;;;;9.55;4.78;;;;;;;5.45;93.76;99232.84;5093136;28;20032;-60
2022/11/22 09:33:44;;;;;;;12.77;5.57;;;;;;;5.47;93.24;99233.56;5095494;28;20016;-60
2022/11/22 09:36:15;;;;;;;9.68;4.95;;;;;;;5.53;93.08;99234.94;5092889;28;20031;-60
2022/11/22 09:38:43;;;;;;;13.48;5.35;;;;;;;5.54;93.49;99234.84;5093878;28;20477;-60
2022/11/22 09:41:15;;;;;;;13.10;4.97;;;;;;;5.50;93.78;99220.19;5094670;28;20032;-60
2022/11/22 09:44:14;;;;;;;10.43;4.80;;;;;;;5.61;93.40;99230.81;5074296;28;20090;-60
2022/11/22 09:47:06;;;;;;;13.18;4.32;;;;;;;5.64;93.11;99230.63;5073738;28;20033;-60
2022/11/22 09:50:11;;;;;;;16.13;5.65;;;;;;;5.73;92.76;99215.09;5072781;28;20040;-60
2022/11/22 09:52:41;;;;;;;9.32;4.18;;;;;;;5.73;91.58;99233.56;5067137;28;20048;-60
2022/11/22 09:55:15;;;;;;;13.80;4.68;;;;;;;5.71;91.09;99223.16;5094275;28;20031;-60
2022/11/22 09:57:46;;;;;;;7.68;4.65;;;;;;;5.72;90.80;99226.63;5093483;28;20427;-60
2022/11/22 10:00:20;;;;;;;9.73;4.93;;;;;;;5.75;92.00;99237.81;5092764;28;20102;-60
2022/11/22 10:02:53;;;;;;;9.55;4.60;;;;;;;5.71;92.01;99236.34;5110016;28;20114;-60
2022/11/22 10:05:26;;;;;;;11.10;4.70;;;;;;;5.76;92.35;99247.38;5112924;28;20372;-60
2022/11/22 10:08:21;;;;;;;10.82;4.35;;;;;;;5.78;92.24;99239.38;5113715;28;20063;-60
2022/11/22 10:10:52;;;;;;;10.80;4.50;;;;;;;5.76;91.51;99246.56;5086932;28;20485;-60
2022/11/22 10:13:32;;;;;;;13.07;4.88;;;;;;;5.75;92.22;99237.81;5110119;28;20097;-60
2022/11/22 10:16:01;;;;;;;6.80;4.55;;;;;;;5.76;91.90;99243.91;5112361;28;20168;-60
2022/11/22 10:18:40;;;;;;;8.48;4.82;;;;;;;5.78;92.44;99236.75;5113753;28;20038;-60
2022/11/22 10:21:12;;;;;;;10.00;5.28;;;;;;;5.74;91.98;99230.84;5111916;28;20106;-60
2022/11/22 10:23:40;;;;;;;10.95;4.38;;;;;;;5.71;92.55;99228.41;5101583;28;20024;-60
2022/11/22 10:26:25;;;;;;;11.48;4.75;;;;;;;5.77;92.88;99230.63;5091616;28;20032;-60
2022/11/22 10:29:18;;;;;;;9.73;4.50;;;;;;;5.77;92.58;99237.72;5093091;28;20106;-60
2022/11/22 10:32:03;;;;;;;9.63;4.93;;;;;;;5.79;93.48;99222.59;5094121;28;20506;-60
2022/11/22 10:34:56;;;;;;;10.07;4.85;;;;;;;5.85;92.73;99225.69;5091834;28;20039;-60
2022/11/22 10:37:21;;;;;;;8.85;4.18;;;;;;;5.87;92.94;99222.91;5092949;28;20084;-60
2022/11/22 10:40:07;;;;;;;9.77;4.25;;;;;;;5.91;92.78;99219.09;5093161;28;20023;-60
2022/11/22 10:42:42;;;;;;;6.32;3.90;;;;;;;5.95;92.20;99222.41;5093710;28;20031;-60
2022/11/22 10:45:23;;;;;;;10.38;4.68;;;;;;;5.97;91.56;99209.94;5093453;28;20035;-60
2022/11/22 10:48:10;;;;;;;8.82;4.90;;;;;;;6.00;92.08;99213.22;5092886;28;20024;-60
2022/11/22 10:50:47;;;;;;;7.22;4.55;;;;;;;6.04;90.99;99216.50;5092550;28;20028;-60
2022/11/22 10:53:33;;;;;;;7.65;4.40;;;;;;;6.07;90.84;99206.56;5111633;28;20088;-60
2022/11/22 10:56:14;;;;;;;6.78;4.05;;;;;;;6.12;90.62;99209.72;5112642;28;20553;-60
2022/11/22 10:59:04;;;;;;;6.07;4.70;;;;;;;6.16;90.45;99217.41;5113235;28;20413;-61
2022/11/22 11:01:46;;;;;;;7.15;4.10;;;;;;;6.21;90.62;99208.22;5108382;28;20036;-60
2022/11/22 11:04:12;;;;;;;7.45;4.20;;;;;;;6.18;90.36;99197.00;5092833;28;20429;-60
2022/11/22 11:06:59;;;;;;;5.03;4.28;;;;;;;6.29;90.26;99199.72;5092388;28;20519;-60
2022/11/22 11:09:37;;;;;;;6.43;5.65;;;;;;;6.25;89.77;99206.19;5092579;28;20024;-60
2022/11/22 11:12:14;;;;;;;6.38;4.30;;;;;;;6.24;90.13;99199.25;5095475;28;20034;-60
2022/11/22 11:14:45;;;;;;;6.68;4.68;;;;;;;6.25;90.02;99185.06;5112695;28;20063;-60
2022/11/22 11:17:17;;;;;;;9.50;3.72;;;;;;;6.12;89.67;99167.50;5112697;28;20047;-60
2022/11/22 11:19:46;;;;;;;5.93;3.75;;;;;;;6.32;90.22;99189.81;5112438;27;20082;-60
2022/11/22 11:22:18;;;;;;;4.88;4.15;;;;;;;6.28;89.16;99175.13;5111287;28;20093;-60
2022/11/22 11:24:43;;;;;;;7.70;3.60;;;;;;;6.36;88.36;99179.88;5112651;28;20102;-60
2022/11/22 11:27:10;;;;;;;5.28;4.10;;;;;;;6.33;88.48;99180.09;5112007;28;20114;-60
2022/11/22 11:29:41;;;;;;;6.95;4.38;;;;;;;6.35;88.76;99175.53;5112272;28;20024;-60
2022/11/22 11:32:20;;;;;;;4.80;3.75;;;;;;;6.35;88.66;99167.59;5110853;28;20439;-60
2022/11/22 11:35:02;;;;;;;3.60;3.28;;;;;;;6.42;88.59;99170.66;5110966;28;20474;-60
2022/11/22 11:37:35;;;;;;;5.47;3.90;;;;;;;6.41;87.67;99175.06;5111245;28;20023;-60
2022/11/22 11:40:01;;;;;;;3.47;3.17;;;;;;;6.41;87.01;99166.31;5105629;28;20020;-60
2022/11/22 11:42:33;;;;;;;5.75;4.00;;;;;;;6.43;87.89;99172.34;5099630;28;20136;-60
2022/11/22 11:45:23;;;;;;;5.00;3.90;;;;;;;6.45;87.44;99165.16;5090747;28;20032;-60
2022/11/22 11:47:51;;;;;;;4.57;4.00;;;;;;;6.46;87.29;99169.47;5091837;28;20028;-60
2022/11/22 11:50:22;;;;;;;4.82;4.03;;;;;;;6.47;86.61;99174.66;5090643;28;20046;-60
2022/11/22 11:53:14;;;;;;;3.90;3.60;;;;;;;6.49;87.20;99169.25;5091309;28;20024;-60
2022/11/22 11:55:40;;;;;;;4.93;4.20;;;;;;;6.50;86.67;99176.22;5091063;28;20024;-60